createdAt,value
2022-08-19T00:01:53.461Z,9.60
2022-08-19T00:04:24.357Z,8.52
2022-08-19T00:06:53.071Z,8.45
2022-08-19T00:09:22.875Z,8.10
2022-08-19T00:11:51.319Z,7.68
2022-08-19T00:14:21.583Z,7.90
2022-08-19T00:16:52.447Z,8.57
2022-08-19T00:19:20.590Z,8.20
2022-08-19T00:21:48.887Z,8.68
2022-08-19T00:24:17.474Z,8.50
2022-08-19T00:26:47.489Z,7.93
2022-08-19T00:29:19.611Z,7.82
2022-08-19T00:31:48.648Z,8.52
2022-08-19T00:34:22.505Z,8.48
2022-08-19T00:36:51.276Z,7.95
2022-08-19T00:39:20.096Z,8.00
2022-08-19T00:41:49.909Z,8.38
2022-08-19T00:44:21.414Z,8.15
2022-08-19T00:46:58.391Z,7.97
2022-08-19T00:49:33.807Z,8.27
2022-08-19T00:52:06.724Z,8.32
2022-08-19T00:54:35.188Z,7.75
2022-08-19T00:57:04.159Z,8.23
2022-08-19T00:59:56.244Z,8.10
2022-08-19T01:02:20.594Z,8.13
2022-08-19T01:04:50.680Z,8.02
2022-08-19T01:07:19.859Z,8.57
2022-08-19T01:09:48.709Z,8.27
2022-08-19T01:12:18.091Z,8.43
2022-08-19T01:14:47.471Z,8.55
2022-08-19T01:17:17.252Z,8.45
2022-08-19T01:19:47.781Z,9.00
2022-08-19T01:22:30.233Z,8.30
2022-08-19T01:25:03.481Z,8.43
2022-08-19T01:27:43.313Z,8.77
2022-08-19T01:30:15.355Z,8.60
2022-08-19T01:32:44.354Z,8.13
2022-08-19T01:35:14.518Z,8.32
2022-08-19T01:37:52.893Z,9.07
2022-08-19T01:40:24.726Z,8.55
2022-08-19T01:42:54.391Z,8.35
2022-08-19T01:45:26.001Z,8.55
2022-08-19T01:48:02.132Z,8.55
2022-08-19T01:50:31.537Z,8.95
2022-08-19T01:53:03.594Z,8.65
2022-08-19T01:55:40.846Z,8.23
2022-08-19T01:58:16.070Z,8.75
2022-08-19T02:00:46.234Z,8.77
2022-08-19T02:03:14.838Z,8.20
2022-08-19T02:05:43.547Z,8.45
2022-08-19T02:08:13.083Z,8.82
2022-08-19T02:10:45.258Z,8.52
2022-08-19T02:13:15.091Z,8.07
2022-08-19T02:15:43.545Z,8.25
2022-08-19T02:18:12.030Z,8.13
2022-08-19T02:20:41.618Z,8.60
2022-08-19T02:23:13.471Z,8.20
2022-08-19T02:25:45.373Z,8.85
2022-08-19T02:28:17.933Z,8.50
2022-08-19T02:30:47.956Z,9.20
2022-08-19T02:33:16.268Z,8.45
2022-08-19T02:35:45.369Z,8.55
2022-08-19T02:38:28.958Z,8.65
2022-08-19T02:41:01.472Z,8.85
2022-08-19T02:43:33.687Z,9.10
2022-08-19T02:46:02.247Z,9.70
2022-08-19T02:48:31.105Z,8.60
2022-08-19T02:50:59.250Z,9.05
2022-08-19T02:53:30.081Z,8.98
2022-08-19T02:55:59.893Z,8.45
2022-08-19T02:58:28.791Z,8.63
2022-08-19T03:00:58.607Z,8.80
2022-08-19T03:03:27.075Z,9.02
2022-08-19T03:06:06.206Z,9.20
2022-08-19T03:08:34.376Z,9.38
2022-08-19T03:11:04.098Z,9.02
2022-08-19T03:13:32.232Z,9.07
2022-08-19T03:16:00.502Z,9.40
2022-08-19T03:18:28.590Z,9.57
2022-08-19T03:20:56.990Z,9.60
2022-08-19T03:23:26.005Z,8.93
2022-08-19T03:26:03.042Z,9.73
2022-08-19T03:28:47.744Z,8.88
2022-08-19T03:31:44.900Z,9.48
2022-08-19T03:34:13.403Z,9.93
2022-08-19T03:36:41.733Z,9.10
2022-08-19T03:39:10.483Z,9.05
2022-08-19T03:41:44.599Z,10.43
2022-08-19T03:44:17.807Z,9.60
2022-08-19T03:46:47.569Z,9.20
2022-08-19T03:49:15.845Z,9.65
2022-08-19T03:51:46.674Z,9.52
2022-08-19T03:54:17.026Z,9.23
2022-08-19T03:56:47.746Z,9.20
2022-08-19T03:59:20.915Z,9.45
2022-08-19T04:01:49.307Z,9.38
2022-08-19T04:04:17.406Z,9.82
2022-08-19T04:06:48.914Z,9.70
2022-08-19T04:09:17.800Z,9.45
2022-08-19T04:11:48.554Z,9.57
2022-08-19T04:14:20.605Z,11.50
2022-08-19T04:16:50.065Z,9.45
2022-08-19T04:19:20.772Z,9.68
2022-08-19T04:21:51.996Z,9.73
2022-08-19T04:24:21.543Z,9.32
2022-08-19T04:26:50.339Z,9.10
2022-08-19T04:29:25.886Z,9.10
2022-08-19T04:31:55.614Z,9.73
2022-08-19T04:34:26.406Z,9.18
2022-08-19T04:36:56.391Z,9.57
2022-08-19T04:39:47.249Z,8.95
2022-08-19T04:42:34.209Z,9.15
2022-08-19T04:45:05.380Z,9.75
2022-08-19T04:47:46.885Z,9.35
2022-08-19T04:50:19.619Z,10.35
2022-08-19T04:52:47.905Z,10.30
2022-08-19T04:55:16.107Z,10.90
2022-08-19T04:57:44.249Z,11.52
2022-08-19T05:00:14.792Z,10.50
2022-08-19T05:02:42.966Z,10.43
2022-08-19T05:05:11.146Z,10.20
2022-08-19T05:07:41.078Z,12.00
2022-08-19T05:10:09.679Z,12.10
2022-08-19T05:12:37.996Z,12.18
2022-08-19T05:15:09.591Z,9.82
2022-08-19T05:17:39.441Z,10.65
2022-08-19T05:20:27.375Z,8.98
2022-08-19T05:22:55.854Z,8.95
2022-08-19T05:25:26.607Z,9.55
2022-08-19T05:27:54.756Z,9.13
2022-08-19T05:30:33.501Z,9.40
2022-08-19T05:33:13.216Z,8.93
2022-08-19T05:35:42.086Z,9.35
2022-08-19T05:38:10.388Z,18.33
2022-08-19T05:40:39.259Z,15.75
2022-08-19T05:43:09.069Z,15.60
2022-08-19T05:45:43.092Z,9.73
2022-08-19T05:48:13.163Z,9.55
2022-08-19T05:50:42.560Z,8.57
2022-08-19T05:53:10.927Z,9.25
2022-08-19T05:55:40.695Z,9.07
2022-08-19T05:58:09.263Z,9.30
2022-08-19T06:00:37.571Z,9.13
2022-08-19T06:03:11.795Z,12.50
2022-08-19T06:05:50.391Z,15.18
2022-08-19T06:08:34.360Z,9.90
2022-08-19T06:11:18.167Z,9.10
2022-08-19T06:13:51.762Z,9.23
2022-08-19T06:16:23.237Z,11.55
2022-08-19T06:18:53.611Z,11.00
2022-08-19T06:21:25.175Z,8.73
2022-08-19T06:23:54.115Z,10.23
2022-08-19T06:26:23.339Z,14.82
2022-08-19T06:28:51.413Z,8.88
2022-08-19T06:31:21.979Z,8.23
2022-08-19T06:33:50.778Z,9.98
2022-08-19T06:36:21.364Z,7.78
2022-08-19T06:38:54.802Z,8.07
2022-08-19T06:41:23.059Z,8.00
2022-08-19T06:43:54.059Z,7.93
2022-08-19T06:46:24.626Z,7.35
2022-08-19T06:48:54.477Z,7.65
2022-08-19T06:51:25.098Z,7.60
2022-08-19T06:53:57.082Z,7.38
2022-08-19T06:56:32.000Z,7.78
2022-08-19T06:59:01.042Z,9.50
2022-08-19T07:01:29.269Z,7.88
2022-08-19T07:03:58.432Z,6.82
2022-08-19T07:06:43.760Z,6.93
2022-08-19T07:09:18.592Z,7.38
2022-08-19T07:11:51.160Z,7.55
2022-08-19T07:14:21.546Z,8.53
2022-08-19T07:16:52.463Z,13.38
2022-08-19T07:19:22.116Z,8.10
2022-08-19T07:21:53.810Z,7.97
2022-08-19T07:24:25.869Z,7.30
2022-08-19T07:26:55.770Z,6.93
2022-08-19T07:29:25.825Z,8.30
2022-08-19T07:32:00.227Z,8.23
2022-08-19T07:34:31.459Z,16.20
2022-08-19T07:37:01.977Z,6.85
2022-08-19T07:39:37.587Z,6.85
2022-08-19T07:42:08.969Z,7.53
2022-08-19T07:47:49.907Z,6.63
2022-08-19T07:49:59.464Z,8.25
2022-08-19T07:52:27.707Z,9.77
2022-08-19T07:54:57.234Z,7.38
2022-08-19T07:57:25.356Z,6.30
2022-08-19T07:59:53.501Z,11.38
2022-08-19T08:02:21.606Z,7.35
2022-08-19T08:05:07.094Z,7.68
2022-08-19T08:07:53.076Z,10.68
2022-08-19T08:10:24.259Z,6.63
2022-08-19T08:13:09.608Z,6.47
2022-08-19T08:15:42.981Z,8.38
2022-08-19T08:18:12.108Z,9.43
2022-08-19T08:20:41.087Z,9.48
2022-08-19T08:23:26.168Z,8.73
2022-08-19T08:25:58.025Z,7.40
2022-08-19T08:28:29.777Z,7.65
2022-08-19T08:30:59.795Z,6.72
2022-08-19T08:33:33.774Z,11.05
2022-08-19T08:36:04.235Z,8.35
2022-08-19T08:38:39.667Z,8.80
2022-08-19T08:41:29.156Z,9.60
2022-08-19T08:43:59.178Z,8.32
2022-08-19T08:46:34.126Z,7.40
2022-08-19T08:49:09.930Z,6.90
2022-08-19T08:51:44.078Z,6.75
2022-08-19T08:54:18.093Z,15.38
2022-08-19T08:56:51.638Z,6.53
2022-08-19T08:59:25.282Z,7.93
2022-08-19T09:01:53.551Z,6.25
2022-08-19T09:04:23.862Z,6.63
2022-08-19T09:07:00.765Z,6.18
2022-08-19T09:09:33.613Z,5.93
2022-08-19T09:12:11.826Z,6.38
2022-08-19T09:14:50.680Z,5.97
2022-08-19T09:17:20.689Z,8.00
2022-08-19T09:19:57.937Z,9.07
2022-08-19T09:22:27.776Z,10.50
2022-08-19T09:24:56.919Z,9.38
2022-08-19T09:27:43.165Z,8.75
2022-08-19T09:30:16.096Z,6.50
2022-08-19T09:32:45.621Z,6.43
2022-08-19T09:35:15.457Z,5.80
2022-08-19T09:37:44.457Z,5.70
2022-08-19T09:40:14.115Z,8.82
2022-08-19T09:42:49.959Z,9.35
2022-08-19T09:45:22.405Z,9.48
2022-08-19T09:47:53.865Z,6.17
2022-08-19T09:50:24.337Z,5.60
2022-08-19T09:52:57.797Z,5.95
2022-08-19T09:55:31.920Z,5.53
2022-08-19T09:58:06.014Z,5.78
2022-08-19T10:00:34.463Z,5.55
2022-08-19T10:03:02.607Z,5.50
2022-08-19T10:05:48.921Z,5.30
2022-08-19T10:08:18.767Z,5.60
2022-08-19T10:10:50.332Z,6.80
2022-08-19T10:13:24.596Z,9.25
2022-08-19T10:15:54.281Z,13.20
2022-08-19T10:18:25.148Z,8.90
2022-08-19T10:20:55.994Z,6.72
2022-08-19T10:23:24.143Z,5.38
2022-08-19T10:25:54.609Z,5.80
2022-08-19T10:28:25.063Z,7.50
2022-08-19T10:30:54.286Z,10.00
2022-08-19T10:33:38.769Z,7.53
2022-08-19T10:36:16.058Z,6.07
2022-08-19T10:38:52.327Z,5.70
2022-08-19T10:41:26.283Z,5.57
2022-08-19T10:43:57.533Z,5.10
2022-08-19T10:46:33.613Z,5.40
2022-08-19T10:49:02.577Z,4.97
2022-08-19T10:51:48.741Z,5.05
2022-08-19T10:54:22.317Z,5.10
2022-08-19T10:56:59.356Z,4.97
2022-08-19T10:59:35.783Z,5.18
2022-08-19T11:02:06.804Z,5.50
2022-08-19T11:04:35.850Z,6.10
2022-08-19T11:07:04.822Z,6.13
2022-08-19T11:09:34.479Z,5.60
2022-08-19T11:12:05.052Z,6.38
2022-08-19T11:14:35.587Z,6.53
2022-08-19T11:17:05.069Z,5.53
2022-08-19T11:19:34.155Z,5.30
2022-08-19T11:22:04.421Z,5.82
2022-08-19T11:24:33.842Z,5.65
2022-08-19T11:27:07.623Z,5.95
2022-08-19T11:29:38.203Z,5.50
2022-08-19T11:32:07.670Z,6.03
2022-08-19T11:34:36.442Z,5.80
2022-08-19T11:37:06.717Z,5.72
2022-08-19T11:39:37.951Z,5.25
2022-08-19T11:42:28.109Z,5.00
2022-08-19T11:44:57.850Z,5.28
2022-08-19T11:47:27.300Z,5.22
2022-08-19T11:49:55.443Z,5.43
2022-08-19T11:52:23.585Z,5.80
2022-08-19T11:54:51.703Z,5.95
2022-08-19T11:57:20.757Z,6.18
2022-08-19T11:59:54.382Z,5.28
2022-08-19T12:02:24.380Z,6.10
2022-08-19T12:04:52.517Z,7.00
2022-08-19T12:07:20.590Z,7.88
2022-08-19T12:09:48.886Z,8.25
2022-08-19T12:12:17.188Z,8.18
2022-08-19T12:14:45.475Z,8.00
2022-08-19T12:17:14.373Z,7.80
2022-08-19T12:19:43.992Z,7.93
2022-08-19T12:22:12.160Z,7.80
2022-08-19T12:24:40.284Z,7.07
2022-08-19T12:27:12.543Z,7.22
2022-08-19T12:29:42.507Z,7.20
2022-08-19T12:32:12.090Z,7.45
2022-08-19T12:34:41.037Z,6.95
2022-08-19T12:37:11.993Z,7.85
2022-08-19T12:39:43.526Z,7.95
2022-08-19T12:42:12.559Z,9.40
2022-08-19T12:44:42.715Z,9.43
2022-08-19T12:47:13.264Z,9.20
2022-08-19T12:49:54.670Z,9.50
2022-08-19T12:52:28.104Z,9.77
2022-08-19T12:54:58.474Z,9.90
2022-08-19T12:57:32.950Z,9.70
2022-08-19T13:00:05.809Z,10.68
2022-08-19T13:07:39.562Z,10.52
2022-08-19T13:10:09.876Z,10.35
2022-08-19T13:12:38.324Z,9.27
2022-08-19T13:15:10.768Z,8.00
2022-08-19T13:17:40.907Z,5.05
2022-08-19T13:20:11.076Z,4.20
2022-08-19T13:22:40.859Z,3.95
2022-08-19T13:25:10.470Z,4.80
2022-08-19T13:27:39.488Z,4.05
2022-08-19T13:30:27.955Z,4.32
2022-08-19T13:33:15.953Z,4.20
2022-08-19T13:35:48.110Z,4.22
2022-08-19T13:38:21.477Z,4.32
2022-08-19T13:40:51.325Z,4.10
2022-08-19T13:43:22.928Z,4.68
2022-08-19T13:45:57.433Z,3.78
2022-08-19T13:48:28.012Z,4.30
2022-08-19T13:50:56.773Z,4.30
2022-08-19T13:53:26.364Z,4.75
2022-08-19T13:55:54.990Z,4.57
2022-08-19T13:58:23.707Z,5.20
2022-08-19T14:00:52.054Z,5.13
2022-08-19T14:03:20.288Z,5.55
2022-08-19T14:05:48.776Z,4.57
2022-08-19T14:08:16.915Z,4.53
2022-08-19T14:10:46.979Z,4.60
2022-08-19T14:13:17.429Z,4.93
2022-08-19T14:15:45.740Z,4.28
2022-08-19T14:18:14.044Z,4.20
2022-08-19T14:20:42.501Z,4.25
2022-08-19T14:23:11.740Z,4.13
2022-08-19T14:25:39.808Z,4.60
2022-08-19T14:28:09.572Z,4.20
2022-08-19T14:30:39.254Z,4.70
2022-08-19T14:33:09.385Z,4.55
2022-08-19T14:35:38.163Z,3.88
2022-08-19T14:38:07.558Z,4.22
2022-08-19T14:40:35.895Z,4.07
2022-08-19T14:43:06.488Z,4.40
2022-08-19T14:45:38.806Z,4.32
2022-08-19T14:48:17.823Z,3.60
2022-08-19T14:50:48.907Z,4.35
2022-08-19T14:53:18.317Z,3.83
2022-08-19T14:55:47.796Z,3.28
2022-08-19T14:58:29.755Z,3.22
2022-08-19T15:01:01.170Z,3.17
2022-08-19T15:03:30.265Z,3.50
2022-08-19T15:05:58.936Z,3.65
2022-08-19T15:08:28.863Z,3.40
2022-08-19T15:10:57.888Z,3.03
2022-08-19T15:13:27.215Z,3.63
2022-08-19T15:15:56.251Z,3.10
2022-08-19T15:18:26.154Z,2.75
2022-08-19T15:20:54.428Z,2.85
2022-08-19T15:23:23.432Z,3.35
2022-08-19T15:25:54.443Z,3.35
2022-08-19T15:28:22.804Z,3.47
2022-08-19T15:30:52.395Z,3.42
2022-08-19T15:33:21.219Z,3.30
2022-08-19T15:35:52.092Z,3.65
2022-08-19T15:38:22.382Z,4.75
2022-08-19T15:40:51.411Z,3.85
2022-08-19T15:43:21.801Z,3.80
2022-08-19T15:45:50.290Z,4.05
2022-08-19T15:48:18.498Z,3.70
2022-08-19T15:50:46.663Z,3.47
2022-08-19T15:53:16.196Z,3.15
2022-08-19T15:55:48.602Z,3.58
2022-08-19T15:58:34.643Z,3.00
2022-08-19T16:01:22.246Z,3.83
2022-08-19T16:04:14.732Z,3.58
2022-08-19T16:06:45.875Z,3.20
2022-08-19T16:09:17.313Z,4.45
2022-08-19T16:11:46.541Z,3.70
2022-08-19T16:14:15.435Z,3.70
2022-08-19T16:16:47.220Z,4.32
2022-08-19T16:19:17.261Z,3.92
2022-08-19T16:21:46.956Z,4.82
2022-08-19T16:24:19.009Z,8.45
2022-08-19T16:26:48.228Z,4.07
2022-08-19T16:29:22.033Z,3.80
2022-08-19T16:32:02.958Z,4.10
2022-08-19T16:34:31.573Z,3.45
2022-08-19T16:36:59.673Z,3.65
2022-08-19T16:39:29.203Z,3.92
2022-08-19T16:41:57.394Z,4.32
2022-08-19T16:44:29.891Z,3.65
2022-08-19T16:46:59.545Z,4.13
2022-08-19T16:49:53.779Z,3.67
2022-08-19T16:52:18.144Z,4.07
2022-08-19T16:54:48.606Z,4.13
2022-08-19T16:57:16.936Z,3.80
2022-08-19T16:59:48.975Z,3.90
2022-08-19T17:02:18.537Z,4.00
2022-08-19T17:04:57.639Z,4.00
2022-08-19T17:07:28.054Z,4.28
2022-08-19T17:09:58.409Z,4.13
2022-08-19T17:12:31.836Z,4.05
2022-08-19T17:15:01.190Z,4.63
2022-08-19T17:17:30.055Z,5.05
2022-08-19T17:19:59.098Z,3.97
2022-08-19T17:22:27.439Z,4.88
2022-08-19T17:24:58.337Z,4.25
2022-08-19T17:27:32.466Z,6.85
2022-08-19T17:30:02.592Z,3.90
2022-08-19T17:32:34.352Z,4.32
2022-08-19T17:35:04.747Z,4.30
2022-08-19T17:37:34.207Z,3.92
2022-08-19T17:40:05.421Z,4.28
2022-08-19T17:42:33.683Z,3.85
2022-08-19T17:45:02.365Z,3.67
2022-08-19T17:47:31.310Z,4.07
2022-08-19T17:49:59.503Z,3.88
2022-08-19T17:52:27.953Z,4.00
2022-08-19T17:54:56.452Z,4.05
2022-08-19T17:57:26.550Z,4.43
2022-08-19T17:59:55.420Z,4.03
2022-08-19T18:02:24.870Z,4.97
2022-08-19T18:04:53.612Z,4.25
2022-08-19T18:07:22.473Z,4.25
2022-08-19T18:09:52.842Z,4.55
2022-08-19T18:12:25.012Z,3.53
2022-08-19T18:14:54.744Z,4.25
2022-08-19T18:17:23.678Z,3.42
2022-08-19T18:19:51.779Z,5.70
2022-08-19T18:22:26.767Z,3.95
2022-08-19T18:24:55.324Z,3.58
2022-08-19T18:27:23.694Z,3.55
2022-08-19T18:29:51.977Z,3.83
2022-08-19T18:32:24.025Z,3.92
2022-08-19T18:34:53.229Z,4.05
2022-08-19T18:37:22.273Z,4.00
2022-08-19T18:40:07.739Z,4.30
2022-08-19T18:42:54.431Z,4.43
2022-08-19T18:45:43.574Z,3.80
2022-08-19T18:48:31.311Z,4.35
2022-08-19T18:51:01.482Z,4.63
2022-08-19T18:53:33.429Z,4.25
2022-08-19T18:56:01.622Z,5.18
2022-08-19T18:58:34.281Z,5.22
2022-08-19T19:01:11.155Z,5.80
2022-08-19T19:03:45.389Z,5.63
2022-08-19T19:06:14.346Z,5.22
2022-08-19T19:08:42.914Z,5.50
2022-08-19T19:11:11.099Z,4.47
2022-08-19T19:13:41.045Z,4.10
2022-08-19T19:16:11.630Z,4.63
2022-08-19T19:18:41.486Z,4.45
2022-08-19T19:21:10.366Z,4.85
2022-08-19T19:23:41.029Z,4.55
2022-08-19T19:26:10.573Z,4.75
2022-08-19T19:28:44.362Z,4.85
2022-08-19T19:31:15.037Z,5.43
2022-08-19T19:33:45.613Z,5.22
2022-08-19T19:36:14.117Z,5.65
2022-08-19T19:38:48.232Z,5.68
2022-08-19T19:41:19.787Z,6.82
2022-08-19T19:43:59.919Z,6.30
2022-08-19T19:46:42.438Z,5.50
2022-08-19T19:49:12.801Z,5.32
2022-08-19T19:51:41.422Z,5.85
2022-08-19T19:54:13.918Z,5.78
2022-08-19T19:56:43.400Z,5.63
2022-08-19T19:59:14.558Z,5.78
2022-08-19T20:01:46.889Z,5.68
2022-08-19T20:04:17.744Z,6.13
2022-08-19T20:06:47.121Z,5.25
2022-08-19T20:09:19.655Z,5.90
2022-08-19T20:11:53.466Z,6.18
2022-08-19T20:14:23.626Z,5.35
2022-08-19T20:16:53.847Z,6.82
2022-08-19T20:19:26.897Z,7.38
2022-08-19T20:21:57.521Z,7.50
2022-08-19T20:24:32.483Z,8.55
2022-08-19T20:27:00.927Z,8.30
2022-08-19T20:29:38.763Z,8.20
2022-08-19T20:32:09.048Z,7.82
2022-08-19T20:34:39.399Z,8.10
2022-08-19T20:37:10.581Z,9.27
2022-08-19T20:39:39.241Z,10.63
2022-08-19T20:42:07.626Z,10.05
2022-08-19T20:44:36.141Z,10.98
2022-08-19T20:47:04.434Z,10.35
2022-08-19T20:49:33.008Z,10.55
2022-08-19T20:52:03.803Z,10.63
2022-08-19T20:54:32.296Z,10.23
2022-08-19T20:57:00.715Z,10.85
2022-08-19T20:59:28.992Z,9.82
2022-08-19T21:01:57.591Z,11.15
2022-08-19T21:04:26.802Z,11.43
2022-08-19T21:06:57.130Z,12.50
2022-08-19T21:09:27.139Z,12.20
2022-08-19T21:11:55.261Z,13.05
2022-08-19T21:14:23.880Z,14.70
2022-08-19T21:16:52.087Z,15.32
2022-08-19T21:19:23.896Z,15.70
2022-08-19T21:21:52.585Z,15.38
2022-08-19T21:24:20.708Z,14.95
2022-08-19T21:26:51.422Z,13.27
2022-08-19T21:29:20.375Z,13.35
2022-08-19T21:31:49.040Z,11.88
2022-08-19T21:34:17.226Z,10.68
2022-08-19T21:36:45.577Z,9.68
2022-08-19T21:39:13.800Z,10.25
2022-08-19T21:41:43.689Z,13.00
2022-08-19T21:44:13.527Z,11.70
2022-08-19T21:46:41.784Z,9.70
2022-08-19T21:49:09.920Z,10.13
2022-08-19T21:51:38.468Z,10.30
2022-08-19T21:54:06.647Z,10.38
2022-08-19T21:56:35.114Z,10.88
2022-08-19T21:59:03.195Z,11.35
2022-08-19T22:01:32.765Z,9.85
2022-08-19T22:04:01.051Z,11.15
2022-08-19T22:06:29.211Z,11.23
2022-08-19T22:08:57.380Z,11.68
2022-08-19T22:11:26.426Z,11.70
2022-08-19T22:13:56.523Z,10.32
2022-08-19T22:16:25.621Z,10.05
2022-08-19T22:18:55.157Z,10.00
2022-08-19T22:21:29.386Z,10.35
2022-08-19T22:24:10.005Z,10.95
2022-08-19T22:26:38.143Z,10.35
2022-08-19T22:29:06.424Z,10.90
2022-08-19T22:31:34.551Z,10.75
2022-08-19T22:34:05.370Z,10.43
2022-08-19T22:36:34.170Z,11.23
2022-08-19T22:39:02.498Z,11.60
2022-08-19T22:41:33.372Z,12.35
2022-08-19T22:44:01.852Z,12.05
2022-08-19T22:46:30.013Z,11.88
2022-08-19T22:49:01.681Z,11.77
2022-08-19T22:51:48.800Z,12.38
2022-08-19T22:54:17.152Z,13.73
2022-08-19T22:56:45.345Z,12.73
2022-08-19T22:59:13.571Z,12.52
2022-08-19T23:01:42.173Z,10.50
2022-08-19T23:04:10.879Z,9.73
2022-08-19T23:06:42.180Z,10.20
2022-08-19T23:09:16.605Z,11.18
2022-08-19T23:11:45.696Z,10.50
2022-08-19T23:14:14.679Z,10.30
2022-08-19T23:16:50.417Z,10.55
2022-08-19T23:19:19.661Z,9.32
2022-08-19T23:21:49.741Z,9.60
2022-08-19T23:24:18.115Z,9.93
2022-08-19T23:27:00.195Z,9.45
2022-08-19T23:29:45.983Z,8.13
2022-08-19T23:32:16.274Z,8.77
2022-08-19T23:34:45.824Z,7.88
2022-08-19T23:37:16.533Z,7.57
2022-08-19T23:39:45.371Z,8.13
2022-08-19T23:42:13.730Z,7.75
2022-08-19T23:44:51.654Z,7.80
2022-08-19T23:47:21.355Z,7.18
2022-08-19T23:49:49.797Z,7.22
2022-08-19T23:52:19.557Z,6.75
2022-08-19T23:54:48.045Z,6.93
2022-08-19T23:57:16.407Z,9.00
2022-08-19T23:59:46.258Z,6.97
